Noxapater, Mississippi
Current Conditions -  °F | °C
As of 12:55 PM on Wednesday 26 Nov 2014 (Local Time) from KSTF Reporting Station
Clear Clear  
Wind Chill: 59°   Ceiling: Unl
Heat Index: 59°   Visibility: NA
Dew Point: 30°   Wind: 9mph
Humidity: 34%   Direction: 180°S
Pressure: 30.07"   Gusts: NA
Location:  32.99°N, 89.07°W
Report Text: KSTF 261855Z AUTO 18008KT CLR 15/M01 A3007 RMK AO2 PWINO
Loading
Personal Weather Stations






























Interactive Weather Map New forecast layout! Learn more

10-Day Weather Forecast

Advertisements
Track Severe Weather on mobile